sensor_id;sensor_type;location;lat;lon;timestamp;pressure;altitude;pressure_sealevel;temperature;humidity
54236;BME280;40151;43.606;1.472;2023-07-20T00:00:26;99557.16;;;29.64;45.56
54236;BME280;40151;43.606;1.472;2023-07-20T00:02:52;99551.91;;;29.63;45.40
54236;BME280;40151;43.606;1.472;2023-07-20T00:05:18;99551.91;;;29.63;45.58
54236;BME280;40151;43.606;1.472;2023-07-20T00:07:43;99554.06;;;29.59;45.74
54236;BME280;40151;43.606;1.472;2023-07-20T00:10:09;99549.50;;;29.59;45.74
54236;BME280;40151;43.606;1.472;2023-07-20T00:12:35;99547.00;;;29.58;45.46
54236;BME280;40151;43.606;1.472;2023-07-20T00:15:00;99548.97;;;29.56;45.85
54236;BME280;40151;43.606;1.472;2023-07-20T00:17:26;99552.66;;;29.55;45.57
54236;BME280;40151;43.606;1.472;2023-07-20T00:19:51;99546.41;;;29.54;45.77
54236;BME280;40151;43.606;1.472;2023-07-20T00:22:17;99550.97;;;29.54;45.96
54236;BME280;40151;43.606;1.472;2023-07-20T00:24:42;99545.59;;;29.54;45.62
54236;BME280;40151;43.606;1.472;2023-07-20T00:27:08;99548.28;;;29.54;45.51
54236;BME280;40151;43.606;1.472;2023-07-20T00:29:34;99546.59;;;29.53;45.75
54236;BME280;40151;43.606;1.472;2023-07-20T00:32:00;99540.50;;;29.51;45.53
54236;BME280;40151;43.606;1.472;2023-07-20T00:34:26;99533.28;;;29.51;45.86
54236;BME280;40151;43.606;1.472;2023-07-20T00:36:51;99530.59;;;29.51;45.73
54236;BME280;40151;43.606;1.472;2023-07-20T00:39:16;99531.59;;;29.50;45.61
54236;BME280;40151;43.606;1.472;2023-07-20T00:41:42;99531.44;;;29.52;45.47
54236;BME280;40151;43.606;1.472;2023-07-20T00:44:07;99528.06;;;29.50;45.71
54236;BME280;40151;43.606;1.472;2023-07-20T00:46:33;99517.31;;;29.50;45.98
54236;BME280;40151;43.606;1.472;2023-07-20T00:48:59;99514.75;;;29.48;45.66
54236;BME280;40151;43.606;1.472;2023-07-20T00:51:25;99512.19;;;29.46;45.91
54236;BME280;40151;43.606;1.472;2023-07-20T00:53:52;99514.03;;;29.46;46.15
54236;BME280;40151;43.606;1.472;2023-07-20T00:56:19;99511.50;;;29.44;45.83
54236;BME280;40151;43.606;1.472;2023-07-20T00:58:44;99514.16;;;29.44;45.68
54236;BME280;40151;43.606;1.472;2023-07-20T01:01:10;99514.16;;;29.44;45.86
54236;BME280;40151;43.606;1.472;2023-07-20T01:03:36;99507.97;;;29.44;45.97
54236;BME280;40151;43.606;1.472;2023-07-20T01:09:20;99506.41;;;29.41;45.68
54236;BME280;40151;43.606;1.472;2023-07-20T01:12:08;99503.72;;;29.41;45.76
54236;BME280;40151;43.606;1.472;2023-07-20T01:14:35;99491.28;;;29.40;46.09
54236;BME280;40151;43.606;1.472;2023-07-20T01:17:03;99492.28;;;29.39;45.99
54236;BME280;40151;43.606;1.472;2023-07-20T01:19:29;99489.56;;;29.39;46.09
54236;BME280;40151;43.606;1.472;2023-07-20T01:33:16;99483.66;;;29.35;45.94
54236;BME280;40151;43.606;1.472;2023-07-20T01:35:43;99482.84;;;29.35;46.23
54236;BME280;40151;43.606;1.472;2023-07-20T01:38:11;99482.28;;;29.31;45.97
54236;BME280;40151;43.606;1.472;2023-07-20T01:40:38;99472.38;;;29.32;46.21
54236;BME280;40151;43.606;1.472;2023-07-20T01:43:03;99476.06;;;29.31;46.15
54236;BME280;40151;43.606;1.472;2023-07-20T01:45:29;99483.44;;;29.29;46.22
54236;BME280;40151;43.606;1.472;2023-07-20T01:47:54;99476.34;;;29.28;46.11
54236;BME280;40151;43.606;1.472;2023-07-20T01:50:20;99469.13;;;29.28;45.93
54236;BME280;40151;43.606;1.472;2023-07-20T01:52:45;99467.44;;;29.27;46.04
54236;BME280;40151;43.606;1.472;2023-07-20T01:55:10;99463.06;;;29.26;46.28
54236;BME280;40151;43.606;1.472;2023-07-20T01:57:36;99461.22;;;29.27;46.17
54236;BME280;40151;43.606;1.472;2023-07-20T02:00:01;99463.91;;;29.27;46.31
54236;BME280;40151;43.606;1.472;2023-07-20T02:02:27;99457.16;;;29.23;46.32
54236;BME280;40151;43.606;1.472;2023-07-20T02:04:56;99452.59;;;29.23;46.32
54236;BME280;40151;43.606;1.472;2023-07-20T02:07:21;99460.81;;;29.21;46.30
54236;BME280;40151;43.606;1.472;2023-07-20T02:09:47;99452.91;;;29.20;46.29
54236;BME280;40151;43.606;1.472;2023-07-20T02:12:12;99450.06;;;29.21;46.13
54236;BME280;40151;43.606;1.472;2023-07-20T02:14:38;99444.13;;;29.18;46.13
54236;BME280;40151;43.606;1.472;2023-07-20T02:17:04;99448.38;;;29.20;46.38
54236;BME280;40151;43.606;1.472;2023-07-20T02:19:30;99454.06;;;29.17;46.14
54236;BME280;40151;43.606;1.472;2023-07-20T02:21:55;99449.69;;;29.16;46.39
54236;BME280;40151;43.606;1.472;2023-07-20T02:24:21;99446.13;;;29.16;46.20
54236;BME280;40151;43.606;1.472;2023-07-20T02:26:46;99432.84;;;29.14;46.18
54236;BME280;40151;43.606;1.472;2023-07-20T02:29:11;99441.91;;;29.13;46.14
54236;BME280;40151;43.606;1.472;2023-07-20T02:31:39;99430.47;;;29.11;46.18
54236;BME280;40151;43.606;1.472;2023-07-20T02:34:06;99435.84;;;29.11;46.32
54236;BME280;40151;43.606;1.472;2023-07-20T02:36:31;99441.22;;;29.11;46.23
54236;BME280;40151;43.606;1.472;2023-07-20T02:39:00;99437.66;;;29.11;46.44
54236;BME280;40151;43.606;1.472;2023-07-20T02:41:27;99438.53;;;29.11;46.41
54236;BME280;40151;43.606;1.472;2023-07-20T02:43:52;99438.81;;;29.08;46.59
54236;BME280;40151;43.606;1.472;2023-07-20T02:46:18;99421.88;;;29.07;46.56
54236;BME280;40151;43.606;1.472;2023-07-20T02:48:43;99431.44;;;29.10;46.38
54236;BME280;40151;43.606;1.472;2023-07-20T02:51:08;99433.44;;;29.08;46.22
54236;BME280;40151;43.606;1.472;2023-07-20T02:53:34;99432.63;;;29.07;46.61
54236;BME280;40151;43.606;1.472;2023-07-20T02:55:59;99434.59;;;29.05;46.28
54236;BME280;40151;43.606;1.472;2023-07-20T02:58:25;99433.03;;;29.03;46.42
54236;BME280;40151;43.606;1.472;2023-07-20T03:00:50;99417.91;;;29.02;46.28
54236;BME280;40151;43.606;1.472;2023-07-20T03:03:16;99421.28;;;29.04;46.46
54236;BME280;40151;43.606;1.472;2023-07-20T03:05:41;99426.97;;;29.01;46.29
54236;BME280;40151;43.606;1.472;2023-07-20T03:08:07;99426.13;;;29.00;46.68
54236;BME280;40151;43.606;1.472;2023-07-20T03:10:33;99426.97;;;29.01;46.36
54236;BME280;40151;43.606;1.472;2023-07-20T03:13:03;99417.38;;;28.98;46.73
54236;BME280;40151;43.606;1.472;2023-07-20T03:15:28;99419.06;;;28.99;46.60
54236;BME280;40151;43.606;1.472;2023-07-20T03:17:54;99419.91;;;29.00;46.41
54236;BME280;40151;43.606;1.472;2023-07-20T03:20:19;99413.13;;;28.96;46.64
54236;BME280;40151;43.606;1.472;2023-07-20T03:22:45;99409.44;;;28.97;46.34
54236;BME280;40151;43.606;1.472;2023-07-20T03:25:11;99416.81;;;28.94;46.76
54236;BME280;40151;43.606;1.472;2023-07-20T03:27:36;99406.91;;;28.95;46.71
54236;BME280;40151;43.606;1.472;2023-07-20T03:30:02;99404.38;;;28.93;46.63
54236;BME280;40151;43.606;1.472;2023-07-20T03:32:27;99396.16;;;28.95;46.51
54236;BME280;40151;43.606;1.472;2023-07-20T03:34:53;99406.06;;;28.94;46.40
54236;BME280;40151;43.606;1.472;2023-07-20T03:37:18;99400.72;;;28.94;46.40
54236;BME280;40151;43.606;1.472;2023-07-20T03:39:43;99390.25;;;28.91;46.40
54236;BME280;40151;43.606;1.472;2023-07-20T03:42:09;99389.56;;;28.89;46.35
54236;BME280;40151;43.606;1.472;2023-07-20T03:44:34;99386.88;;;28.89;46.50
54236;BME280;40151;43.606;1.472;2023-07-20T03:47:00;99387.72;;;28.90;46.40
54236;BME280;40151;43.606;1.472;2023-07-20T03:49:25;99390.56;;;28.88;46.36
54236;BME280;40151;43.606;1.472;2023-07-20T03:51:51;99382.63;;;28.87;46.42
54236;BME280;40151;43.606;1.472;2023-07-20T03:54:16;99384.19;;;28.89;46.32
54236;BME280;40151;43.606;1.472;2023-07-20T03:56:42;99387.88;;;28.88;46.72
54236;BME280;40151;43.606;1.472;2023-07-20T03:59:07;99393.38;;;28.87;46.39
54236;BME280;40151;43.606;1.472;2023-07-20T04:01:32;99385.44;;;28.85;46.40
54236;BME280;40151;43.606;1.472;2023-07-20T04:04:04;99382.06;;;28.83;46.75
54236;BME280;40151;43.606;1.472;2023-07-20T04:06:29;99389.13;;;28.84;46.68
54236;BME280;40151;43.606;1.472;2023-07-20T04:08:54;99394.50;;;28.84;46.82
54236;BME280;40151;43.606;1.472;2023-07-20T04:11:20;99394.50;;;28.84;46.48
54236;BME280;40151;43.606;1.472;2023-07-20T04:13:45;99392.81;;;28.83;46.56
54236;BME280;40151;43.606;1.472;2023-07-20T04:16:11;99393.81;;;28.82;46.34
54236;BME280;40151;43.606;1.472;2023-07-20T04:18:36;99389.44;;;28.81;46.60
54236;BME280;40151;43.606;1.472;2023-07-20T04:21:01;99391.94;;;28.83;46.81
54236;BME280;40151;43.606;1.472;2023-07-20T04:23:27;99379.81;;;28.78;46.82
54236;BME280;40151;43.606;1.472;2023-07-20T04:25:52;99380.66;;;28.79;46.31
54236;BME280;40151;43.606;1.472;2023-07-20T04:28:18;99371.78;;;28.78;46.43
54236;BME280;40151;43.606;1.472;2023-07-20T04:30:43;99373.59;;;28.78;46.84
54236;BME280;40151;43.606;1.472;2023-07-20T04:33:08;99372.06;;;28.75;46.48
54236;BME280;40151;43.606;1.472;2023-07-20T04:35:53;99373.88;;;28.75;46.63
54236;BME280;40151;43.606;1.472;2023-07-20T04:38:20;99370.38;;;28.74;46.86
54236;BME280;40151;43.606;1.472;2023-07-20T04:40:47;99370.22;;;28.76;46.60
54236;BME280;40151;43.606;1.472;2023-07-20T04:43:14;99370.50;;;28.73;46.58
54236;BME280;40151;43.606;1.472;2023-07-20T04:45:40;99376.00;;;28.71;46.57
54236;BME280;40151;43.606;1.472;2023-07-20T04:48:09;99364.31;;;28.72;46.67
54236;BME280;40151;43.606;1.472;2023-07-20T04:50:35;99370.50;;;28.73;46.79
54236;BME280;40151;43.606;1.472;2023-07-20T04:53:02;99359.75;;;28.73;46.63
54236;BME280;40151;43.606;1.472;2023-07-20T04:55:28;99365.44;;;28.70;46.87
54236;BME280;40151;43.606;1.472;2023-07-20T04:57:53;99360.06;;;28.70;46.76
54236;BME280;40151;43.606;1.472;2023-07-20T05:00:19;99366.41;;;28.68;46.90
54236;BME280;40151;43.606;1.472;2023-07-20T05:02:45;99361.03;;;28.68;46.58
54236;BME280;40151;43.606;1.472;2023-07-20T05:05:12;99357.53;;;28.68;46.87
54236;BME280;40151;43.606;1.472;2023-07-20T05:07:38;99361.22;;;28.67;46.67
54236;BME280;40151;43.606;1.472;2023-07-20T05:10:03;99363.72;;;28.68;46.48
54236;BME280;40151;43.606;1.472;2023-07-20T05:12:29;99355.53;;;28.70;46.36
54236;BME280;40151;43.606;1.472;2023-07-20T05:14:54;99354.72;;;28.70;46.41
54236;BME280;40151;43.606;1.472;2023-07-20T05:17:20;99358.34;;;28.68;46.82
54236;BME280;40151;43.606;1.472;2023-07-20T05:19:45;99354.72;;;28.70;46.80
54236;BME280;40151;43.606;1.472;2023-07-20T05:22:13;99348.47;;;28.69;46.78
54236;BME280;40151;43.606;1.472;2023-07-20T05:24:39;99354.53;;;28.71;46.64
54236;BME280;40151;43.606;1.472;2023-07-20T05:27:05;99353.84;;;28.69;46.41
54236;BME280;40151;43.606;1.472;2023-07-20T05:29:30;99355.41;;;28.72;46.33
54236;BME280;40151;43.606;1.472;2023-07-20T05:31:57;99346.47;;;28.71;46.56
54236;BME280;40151;43.606;1.472;2023-07-20T05:34:22;99349.03;;;28.73;46.26
54236;BME280;40151;43.606;1.472;2023-07-20T05:36:47;99350.03;;;28.72;46.35
54236;BME280;40151;43.606;1.472;2023-07-20T05:39:13;99347.88;;;28.75;46.62
54236;BME280;40151;43.606;1.472;2023-07-20T05:41:38;99352.41;;;28.75;46.47
54236;BME280;40151;43.606;1.472;2023-07-20T05:44:04;99355.09;;;28.75;46.55
54236;BME280;40151;43.606;1.472;2023-07-20T05:46:29;99356.09;;;28.74;46.33
54236;BME280;40151;43.606;1.472;2023-07-20T05:48:55;99363.13;;;28.75;46.31
54236;BME280;40151;43.606;1.472;2023-07-20T05:51:20;99358.50;;;28.77;46.42
54236;BME280;40151;43.606;1.472;2023-07-20T05:53:45;99357.50;;;28.78;46.52
54236;BME280;40151;43.606;1.472;2023-07-20T05:56:11;99350.44;;;28.77;46.04
54236;BME280;40151;43.606;1.472;2023-07-20T05:58:36;99350.44;;;28.77;46.43
54236;BME280;40151;43.606;1.472;2023-07-20T06:01:03;99345.06;;;28.77;46.19
54236;BME280;40151;43.606;1.472;2023-07-20T06:03:31;99350.13;;;28.80;46.20
54236;BME280;40151;43.606;1.472;2023-07-20T06:06:00;99349.44;;;28.78;45.96
54236;BME280;40151;43.606;1.472;2023-07-20T06:08:30;99344.75;;;28.80;46.15
54236;BME280;40151;43.606;1.472;2023-07-20T06:10:56;99347.44;;;28.80;46.48
54236;BME280;40151;43.606;1.472;2023-07-20T06:13:22;99350.13;;;28.80;46.20
54236;BME280;40151;43.606;1.472;2023-07-20T06:15:48;99347.44;;;28.80;46.13
54236;BME280;40151;43.606;1.472;2023-07-20T06:18:13;99345.47;;;28.82;45.99
54236;BME280;40151;43.606;1.472;2023-07-20T06:20:39;99348.16;;;28.82;46.22
54236;BME280;40151;43.606;1.472;2023-07-20T06:23:04;99349.84;;;28.83;45.99
54236;BME280;40151;43.606;1.472;2023-07-20T06:25:30;99349.84;;;28.83;46.20
54236;BME280;40151;43.606;1.472;2023-07-20T06:27:56;99347.16;;;28.83;46.23
54236;BME280;40151;43.606;1.472;2023-07-20T06:30:21;99347.84;;;28.85;46.24
54236;BME280;40151;43.606;1.472;2023-07-20T06:32:47;99341.94;;;28.81;46.14
54236;BME280;40151;43.606;1.472;2023-07-20T06:35:13;99346.16;;;28.84;45.96
54236;BME280;40151;43.606;1.472;2023-07-20T06:37:39;99348.16;;;28.82;46.14
54236;BME280;40151;43.606;1.472;2023-07-20T06:40:04;99349.84;;;28.83;46.16
54236;BME280;40151;43.606;1.472;2023-07-20T06:42:30;99347.84;;;28.85;46.18
54236;BME280;40151;43.606;1.472;2023-07-20T06:44:57;99347.84;;;28.85;46.15
54236;BME280;40151;43.606;1.472;2023-07-20T06:47:22;99354.94;;;28.86;45.72
54236;BME280;40151;43.606;1.472;2023-07-20T06:49:48;99348.69;;;28.86;46.11
54236;BME280;40151;43.606;1.472;2023-07-20T06:52:13;99342.47;;;28.85;45.85
54236;BME280;40151;43.606;1.472;2023-07-20T06:54:38;99352.25;;;28.86;45.93
54236;BME280;40151;43.606;1.472;2023-07-20T06:57:05;99351.28;;;28.87;46.01
54236;BME280;40151;43.606;1.472;2023-07-20T06:59:30;99340.78;;;28.84;45.76
54236;BME280;40151;43.606;1.472;2023-07-20T07:01:55;99335.41;;;28.84;45.98
54236;BME280;40151;43.606;1.472;2023-07-20T07:04:21;99342.47;;;28.85;45.55
54236;BME280;40151;43.606;1.472;2023-07-20T07:06:46;99336.28;;;28.85;45.94
54236;BME280;40151;43.606;1.472;2023-07-20T07:09:12;99337.41;;;28.82;45.96
54236;BME280;40151;43.606;1.472;2023-07-20T07:11:37;99333.72;;;28.83;45.74
54236;BME280;40151;43.606;1.472;2023-07-20T07:14:03;99330.19;;;28.83;46.14
54236;BME280;40151;43.606;1.472;2023-07-20T07:16:28;99328.34;;;28.83;45.80
54236;BME280;40151;43.606;1.472;2023-07-20T07:18:54;99331.19;;;28.81;45.96
54236;BME280;40151;43.606;1.472;2023-07-20T07:21:19;99337.41;;;28.82;45.71
54236;BME280;40151;43.606;1.472;2023-07-20T07:23:45;99336.41;;;28.83;46.17
54236;BME280;40151;43.606;1.472;2023-07-20T07:26:10;99339.09;;;28.83;45.74
54236;BME280;40151;43.606;1.472;2023-07-20T07:28:36;99336.41;;;28.83;45.69
54236;BME280;40151;43.606;1.472;2023-07-20T07:31:05;99330.19;;;28.83;45.84
54236;BME280;40151;43.606;1.472;2023-07-20T07:33:31;99338.09;;;28.84;45.77
54236;BME280;40151;43.606;1.472;2023-07-20T07:35:57;99340.78;;;28.84;46.10
54236;BME280;40151;43.606;1.472;2023-07-20T07:38:22;99339.94;;;28.84;45.83
54236;BME280;40151;43.606;1.472;2023-07-20T07:40:47;99343.47;;;28.84;45.71
54236;BME280;40151;43.606;1.472;2023-07-20T07:43:13;99337.41;;;28.82;45.79
54236;BME280;40151;43.606;1.472;2023-07-20T07:45:39;99328.34;;;28.83;45.96
54236;BME280;40151;43.606;1.472;2023-07-20T07:48:05;99332.72;;;28.84;45.95
54236;BME280;40151;43.606;1.472;2023-07-20T07:50:31;99339.78;;;28.85;45.66
54236;BME280;40151;43.606;1.472;2023-07-20T07:52:57;99333.44;;;28.86;46.08
54236;BME280;40151;43.606;1.472;2023-07-20T07:55:24;99335.41;;;28.84;45.89
54236;BME280;40151;43.606;1.472;2023-07-20T07:57:49;99330.03;;;28.84;46.10
54236;BME280;40151;43.606;1.472;2023-07-20T08:00:15;99330.03;;;28.84;45.76
54236;BME280;40151;43.606;1.472;2023-07-20T08:02:44;99326.34;;;28.85;45.65
54236;BME280;40151;43.606;1.472;2023-07-20T08:05:11;99330.03;;;28.84;46.00
54236;BME280;40151;43.606;1.472;2023-07-20T08:07:37;99323.66;;;28.85;45.77
54236;BME280;40151;43.606;1.472;2023-07-20T08:10:03;99322.69;;;28.86;45.60
54236;BME280;40151;43.606;1.472;2023-07-20T08:12:29;99319.06;;;28.87;45.67
54236;BME280;40151;43.606;1.472;2023-07-20T08:14:54;99320.88;;;28.87;46.03
54236;BME280;40151;43.606;1.472;2023-07-20T08:17:19;99315.38;;;28.88;45.77
54236;BME280;40151;43.606;1.472;2023-07-20T08:19:46;99314.22;;;28.91;45.80
54236;BME280;40151;43.606;1.472;2023-07-20T08:22:11;99314.22;;;28.91;45.56
54236;BME280;40151;43.606;1.472;2023-07-20T08:24:40;99309.69;;;28.91;45.85
54236;BME280;40151;43.606;1.472;2023-07-20T08:27:06;99312.38;;;28.91;45.86
54236;BME280;40151;43.606;1.472;2023-07-20T08:29:32;99313.09;;;28.93;45.86
54236;BME280;40151;43.606;1.472;2023-07-20T08:31:57;99319.28;;;28.94;45.92
54236;BME280;40151;43.606;1.472;2023-07-20T08:34:23;99305.72;;;28.96;45.56
54236;BME280;40151;43.606;1.472;2023-07-20T08:36:48;99316.44;;;28.96;45.97
54236;BME280;40151;43.606;1.472;2023-07-20T08:39:13;99310.06;;;28.97;45.84
54236;BME280;40151;43.606;1.472;2023-07-20T08:41:40;99312.75;;;28.97;45.44
54236;BME280;40151;43.606;1.472;2023-07-20T08:44:06;99320.69;;;28.98;45.91
54236;BME280;40151;43.606;1.472;2023-07-20T08:46:33;99318.84;;;28.99;45.87
54236;BME280;40151;43.606;1.472;2023-07-20T08:49:00;99315.16;;;29.00;45.72
54236;BME280;40151;43.606;1.472;2023-07-20T08:51:27;99313.47;;;28.99;45.75
54236;BME280;40151;43.606;1.472;2023-07-20T08:53:53;99307.94;;;29.00;45.88
54236;BME280;40151;43.606;1.472;2023-07-20T08:56:20;99315.00;;;29.01;45.45
54236;BME280;40151;43.606;1.472;2023-07-20T08:58:47;99306.78;;;29.03;45.82
54236;BME280;40151;43.606;1.472;2023-07-20T09:01:13;99307.09;;;29.00;45.66
54236;BME280;40151;43.606;1.472;2023-07-20T09:03:39;99305.09;;;29.02;45.71
54236;BME280;40151;43.606;1.472;2023-07-20T09:06:05;99298.72;;;29.03;45.47
54236;BME280;40151;43.606;1.472;2023-07-20T09:08:31;99294.22;;;29.03;45.61
54236;BME280;40151;43.606;1.472;2023-07-20T09:10:57;99302.13;;;29.05;45.64
54236;BME280;40151;43.606;1.472;2023-07-20T09:13:25;99291.38;;;29.05;45.73
54236;BME280;40151;43.606;1.472;2023-07-20T09:15:54;99285.16;;;29.04;45.54
54236;BME280;40151;43.606;1.472;2023-07-20T09:18:27;99284.16;;;29.05;45.46
54236;BME280;40151;43.606;1.472;2023-07-20T09:21:02;99280.66;;;29.05;45.34
54236;BME280;40151;43.606;1.472;2023-07-20T09:23:32;99286.69;;;29.07;45.61
54236;BME280;40151;43.606;1.472;2023-07-20T09:25:58;99283.00;;;29.08;45.48
54236;BME280;40151;43.606;1.472;2023-07-20T09:28:24;99278.66;;;29.07;45.47
54236;BME280;40151;43.606;1.472;2023-07-20T09:30:49;99270.44;;;29.08;45.60
54236;BME280;40151;43.606;1.472;2023-07-20T09:33:21;99269.59;;;29.08;45.08
54236;BME280;40151;43.606;1.472;2023-07-20T09:35:46;99271.13;;;29.11;45.58
54236;BME280;40151;43.606;1.472;2023-07-20T09:38:14;99270.97;;;29.12;45.21
54236;BME280;40151;43.606;1.472;2023-07-20T09:40:40;99263.75;;;29.13;45.24
54236;BME280;40151;43.606;1.472;2023-07-20T09:43:08;99258.38;;;29.13;44.88
54236;BME280;40151;43.606;1.472;2023-07-20T09:45:35;99259.22;;;29.13;45.09
54236;BME280;40151;43.606;1.472;2023-07-20T09:48:08;99258.22;;;29.14;45.51
54236;BME280;40151;43.606;1.472;2023-07-20T09:50:34;99259.22;;;29.13;45.37
54236;BME280;40151;43.606;1.472;2023-07-20T09:53:04;99261.63;;;29.16;45.31
54236;BME280;40151;43.606;1.472;2023-07-20T09:55:31;99251.56;;;29.18;45.50
54236;BME280;40151;43.606;1.472;2023-07-20T09:57:58;99252.38;;;29.19;45.35
54236;BME280;40151;43.606;1.472;2023-07-20T10:00:24;99245.19;;;29.19;45.14
54236;BME280;40151;43.606;1.472;2023-07-20T10:02:51;99252.25;;;29.20;45.52
54236;BME280;40151;43.606;1.472;2023-07-20T10:05:17;99242.34;;;29.21;45.43
54236;BME280;40151;43.606;1.472;2023-07-20T10:07:47;99247.88;;;29.19;45.55
54236;BME280;40151;43.606;1.472;2023-07-20T10:10:14;99234.28;;;29.21;45.48
54236;BME280;40151;43.606;1.472;2023-07-20T10:12:42;99234.28;;;29.21;45.10
54236;BME280;40151;43.606;1.472;2023-07-20T10:15:28;99234.16;;;29.23;45.28
54236;BME280;40151;43.606;1.472;2023-07-20T10:18:02;99233.16;;;29.24;45.18
54236;BME280;40151;43.606;1.472;2023-07-20T10:20:29;99227.78;;;29.24;45.15
54236;BME280;40151;43.606;1.472;2023-07-20T10:22:56;99221.38;;;29.25;45.32
54236;BME280;40151;43.606;1.472;2023-07-20T10:25:23;99228.44;;;29.26;45.04
54236;BME280;40151;43.606;1.472;2023-07-20T10:27:49;99225.75;;;29.26;45.32
54236;BME280;40151;43.606;1.472;2023-07-20T10:30:14;99224.75;;;29.27;45.40
54236;BME280;40151;43.606;1.472;2023-07-20T10:32:41;99227.44;;;29.27;45.53
54236;BME280;40151;43.606;1.472;2023-07-20T10:35:14;99229.13;;;29.28;44.96
54236;BME280;40151;43.606;1.472;2023-07-20T10:37:54;99218.38;;;29.28;45.03
54236;BME280;40151;43.606;1.472;2023-07-20T10:45:40;99216.41;;;29.30;45.45
54236;BME280;40151;43.606;1.472;2023-07-20T10:48:13;99211.03;;;29.30;45.24
54236;BME280;40151;43.606;1.472;2023-07-20T10:50:40;99210.69;;;29.33;45.14
54236;BME280;40151;43.606;1.472;2023-07-20T10:53:16;99204.50;;;29.32;44.86
54236;BME280;40151;43.606;1.472;2023-07-20T10:55:42;99203.34;;;29.35;45.27
54236;BME280;40151;43.606;1.472;2023-07-20T10:58:13;99204.19;;;29.35;45.34
54236;BME280;40151;43.606;1.472;2023-07-20T11:01:00;99195.97;;;29.37;45.27
54236;BME280;40151;43.606;1.472;2023-07-20T11:03:33;99199.50;;;29.38;45.22
54236;BME280;40151;43.606;1.472;2023-07-20T11:05:59;99202.03;;;29.39;45.01
54236;BME280;40151;43.606;1.472;2023-07-20T11:08:43;99190.28;;;29.40;45.16
54236;BME280;40151;43.606;1.472;2023-07-20T11:11:29;99196.34;;;29.42;44.89
54236;BME280;40151;43.606;1.472;2023-07-20T11:16:34;99179.22;;;29.43;45.12
54236;BME280;40151;43.606;1.472;2023-07-20T11:18:59;99177.22;;;29.45;44.95
54236;BME280;40151;43.606;1.472;2023-07-20T11:21:25;99173.53;;;29.46;45.00
54236;BME280;40151;43.606;1.472;2023-07-20T11:23:52;99174.25;;;29.48;45.23
54236;BME280;40151;43.606;1.472;2023-07-20T11:26:18;99173.25;;;29.50;44.92
54236;BME280;40151;43.606;1.472;2023-07-20T11:28:51;99158.78;;;29.51;45.14
54236;BME280;40151;43.606;1.472;2023-07-20T11:31:18;99163.16;;;29.52;45.14
54236;BME280;40151;43.606;1.472;2023-07-20T11:33:44;99156.81;;;29.53;44.90
54236;BME280;40151;43.606;1.472;2023-07-20T11:36:10;99149.44;;;29.55;44.97
54236;BME280;40151;43.606;1.472;2023-07-20T11:38:35;99151.09;;;29.56;45.30
54236;BME280;40151;43.606;1.472;2023-07-20T11:41:03;99138.38;;;29.58;45.29
54236;BME280;40151;43.606;1.472;2023-07-20T11:43:29;99137.38;;;29.59;45.13
54236;BME280;40151;43.606;1.472;2023-07-20T11:45:55;99140.88;;;29.59;45.04
54236;BME280;40151;43.606;1.472;2023-07-20T11:48:20;99137.03;;;29.62;44.98
54236;BME280;40151;43.606;1.472;2023-07-20T11:50:45;99129.81;;;29.63;44.98
54236;BME280;40151;43.606;1.472;2023-07-20T11:53:12;99124.28;;;29.64;44.94
54236;BME280;40151;43.606;1.472;2023-07-20T11:55:41;99123.28;;;29.65;45.03
54236;BME280;40151;43.606;1.472;2023-07-20T11:58:08;99123.28;;;29.65;45.16
54236;BME280;40151;43.606;1.472;2023-07-20T12:00:35;99116.75;;;29.68;45.13
54236;BME280;40151;43.606;1.472;2023-07-20T12:03:01;99113.88;;;29.69;45.23
54236;BME280;40151;43.606;1.472;2023-07-20T12:05:26;99110.22;;;29.70;45.28
54236;BME280;40151;43.606;1.472;2023-07-20T12:07:52;99101.97;;;29.72;45.03
54236;BME280;40151;43.606;1.472;2023-07-20T12:10:27;99101.81;;;29.73;44.88
54236;BME280;40151;43.606;1.472;2023-07-20T12:12:54;99091.06;;;29.73;45.13
54236;BME280;40151;43.606;1.472;2023-07-20T12:17:49;99099.63;;;29.77;45.15
54236;BME280;40151;43.606;1.472;2023-07-20T12:20:25;99089.75;;;29.78;45.04
54236;BME280;40151;43.606;1.472;2023-07-20T12:22:52;99098.47;;;29.80;45.20
54236;BME280;40151;43.606;1.472;2023-07-20T12:25:17;99090.41;;;29.80;45.11
54236;BME280;40151;43.606;1.472;2023-07-20T12:27:45;99084.88;;;29.81;45.37
54236;BME280;40151;43.606;1.472;2023-07-20T12:30:10;99088.25;;;29.83;45.40
54236;BME280;40151;43.606;1.472;2023-07-20T12:32:36;99090.78;;;29.85;45.28
54236;BME280;40151;43.606;1.472;2023-07-20T12:35:01;99080.03;;;29.85;45.00
54236;BME280;40151;43.606;1.472;2023-07-20T12:37:27;99072.63;;;29.87;45.31
54236;BME280;40151;43.606;1.472;2023-07-20T12:39:52;99065.25;;;29.89;45.07
54236;BME280;40151;43.606;1.472;2023-07-20T12:42:18;99066.06;;;29.90;45.24
54236;BME280;40151;43.606;1.472;2023-07-20T12:44:43;99067.78;;;29.91;45.23
54236;BME280;40151;43.606;1.472;2023-07-20T12:47:09;99060.38;;;29.93;45.33
54236;BME280;40151;43.606;1.472;2023-07-20T12:49:34;99061.25;;;29.93;45.28
54236;BME280;40151;43.606;1.472;2023-07-20T12:51:59;99057.34;;;29.96;45.07
54236;BME280;40151;43.606;1.472;2023-07-20T12:54:25;99059.91;;;29.97;45.14
54236;BME280;40151;43.606;1.472;2023-07-20T12:56:50;99056.19;;;29.98;45.17
54236;BME280;40151;43.606;1.472;2023-07-20T12:59:16;99057.91;;;29.99;45.22
54236;BME280;40151;43.606;1.472;2023-07-20T13:01:41;99055.88;;;30.01;45.43
54236;BME280;40151;43.606;1.472;2023-07-20T13:04:08;99052.19;;;30.02;45.12
54236;BME280;40151;43.606;1.472;2023-07-20T13:06:34;99055.53;;;30.05;45.14
54236;BME280;40151;43.606;1.472;2023-07-20T13:09:00;99053.72;;;30.05;45.31
54236;BME280;40151;43.606;1.472;2023-07-20T13:11:25;99054.38;;;30.07;45.35
54236;BME280;40151;43.606;1.472;2023-07-20T13:13:51;99049.84;;;30.08;45.24
54236;BME280;40151;43.606;1.472;2023-07-20T13:16:17;99046.19;;;30.09;45.12
54236;BME280;40151;43.606;1.472;2023-07-20T13:18:42;99039.63;;;30.11;45.50
54236;BME280;40151;43.606;1.472;2023-07-20T13:21:08;99038.63;;;30.12;45.09